createdAt,value
2022-12-09T00:01:30.768Z,99818.91
2022-12-09T00:04:02.904Z,99810.28
2022-12-09T00:06:38.837Z,99807.72
2022-12-09T00:09:17.603Z,99813.66
2022-12-09T00:11:53.355Z,99815.38
2022-12-09T00:14:25.719Z,99818.75
2022-12-09T00:16:55.040Z,99807.66
2022-12-09T00:19:35.423Z,99806.78
2022-12-09T00:22:07.357Z,99808.48
2022-12-09T00:24:39.851Z,99803.30
2022-12-09T00:27:14.925Z,99804.13
2022-12-09T00:29:46.505Z,99803.25
2022-12-09T00:32:24.609Z,99812.56
2022-12-09T00:34:55.022Z,99811.66
2022-12-09T00:37:24.757Z,99812.48
2022-12-09T00:39:56.752Z,99816.74
2022-12-09T00:42:27.235Z,99813.27
2022-12-09T00:44:56.591Z,99817.47
2022-12-09T00:47:25.981Z,99818.30
2022-12-09T00:50:00.361Z,99812.26
2022-12-09T00:52:33.602Z,99815.61
2022-12-09T00:55:03.046Z,99821.55
2022-12-09T00:57:34.794Z,99818.95
2022-12-09T01:00:07.927Z,99812.95
2022-12-09T01:02:38.043Z,99812.11
2022-12-09T01:05:10.536Z,99818.89
2022-12-09T01:07:42.839Z,99815.48
2022-12-09T01:10:14.072Z,99818.86
2022-12-09T01:12:43.148Z,99818.86
2022-12-09T01:15:21.117Z,99814.60
2022-12-09T01:17:53.723Z,99812.86
2022-12-09T01:20:33.705Z,99807.75
2022-12-09T01:23:03.231Z,99800.86
2022-12-09T01:25:34.826Z,99804.30
2022-12-09T01:28:04.526Z,99798.27
2022-12-09T01:30:39.662Z,99801.69
2022-12-09T01:33:13.316Z,99802.47
2022-12-09T01:35:44.891Z,99799.88
2022-12-09T01:38:14.820Z,99797.23
2022-12-09T01:40:50.956Z,99799.76
2022-12-09T01:43:21.475Z,99792.84
2022-12-09T01:45:56.870Z,99803.05
2022-12-09T01:48:32.234Z,99802.19
2022-12-09T01:51:16.374Z,99803.01
2022-12-09T01:53:52.319Z,99805.50
2022-12-09T01:56:29.902Z,99802.95
2022-12-09T01:59:05.217Z,99794.36
2022-12-09T02:01:36.079Z,99796.91
2022-12-09T02:04:06.068Z,99796.03
2022-12-09T02:06:37.360Z,99799.47
2022-12-09T02:09:11.045Z,99790.00
2022-12-09T02:11:57.360Z,99788.27
2022-12-09T02:14:39.853Z,99790.81
2022-12-09T02:17:31.385Z,99792.45
2022-12-09T02:20:13.881Z,99781.31
2022-12-09T02:22:48.174Z,99783.84
2022-12-09T02:25:30.403Z,99783.74
2022-12-09T02:28:24.789Z,99790.50
2022-12-09T02:31:08.680Z,99790.36
2022-12-09T02:33:55.361Z,99790.30
2022-12-09T02:36:30.439Z,99788.56
2022-12-09T02:39:01.502Z,99791.94
2022-12-09T02:41:35.422Z,99792.75
2022-12-09T02:44:11.935Z,99788.46
2022-12-09T02:46:47.337Z,99799.50
2022-12-09T02:49:22.316Z,99792.66
2022-12-09T02:51:52.279Z,99787.54
2022-12-09T02:54:25.132Z,99795.25
2022-12-09T02:56:57.953Z,99796.13
2022-12-09T02:59:28.878Z,99802.09
2022-12-09T03:02:08.965Z,99797.86
2022-12-09T03:04:45.240Z,99798.72
2022-12-09T03:07:24.761Z,99791.05
2022-12-09T03:10:05.796Z,99790.23
2022-12-09T03:12:38.576Z,99786.83
2022-12-09T03:15:12.500Z,99790.23
2022-12-09T03:17:46.994Z,99786.86
2022-12-09T03:20:22.655Z,99782.56
2022-12-09T03:22:55.398Z,99790.23
2022-12-09T03:25:29.857Z,99782.56
2022-12-09T03:28:04.473Z,99774.89
2022-12-09T03:30:41.219Z,99778.34
2022-12-09T03:33:15.644Z,99782.56
2022-12-09T03:35:50.209Z,99781.74
2022-12-09T03:38:19.522Z,99782.63
2022-12-09T03:41:00.062Z,99786.86
2022-12-09T03:43:47.719Z,99777.45
2022-12-09T03:46:16.978Z,99786.86
2022-12-09T03:48:46.541Z,99784.33
2022-12-09T03:51:25.146Z,99780.07
2022-12-09T03:54:03.358Z,99777.55
2022-12-09T03:56:39.184Z,99772.47
2022-12-09T03:59:13.200Z,99772.53
2022-12-09T04:01:49.411Z,99776.83
2022-12-09T04:04:19.659Z,99770.05
2022-12-09T04:06:50.680Z,99774.27
2022-12-09T04:09:23.255Z,99775.03
2022-12-09T04:11:54.002Z,99780.00
2022-12-09T04:14:23.211Z,99773.94
2022-12-09T04:16:52.357Z,99772.17
2022-12-09T04:19:24.444Z,99772.17
2022-12-09T04:21:53.777Z,99774.66
2022-12-09T04:24:29.892Z,99771.16
2022-12-09T04:26:58.879Z,99778.79
2022-12-09T04:29:32.005Z,99776.23
2022-12-09T04:32:01.265Z,99770.92
2022-12-09T04:34:34.127Z,99773.31
2022-12-09T04:37:05.165Z,99781.69
2022-12-09T04:39:34.445Z,99774.70
2022-12-09T04:42:06.277Z,99778.05
2022-12-09T04:44:35.747Z,99780.56
2022-12-09T04:47:17.035Z,99778.86
2022-12-09T04:49:55.748Z,99778.83
2022-12-09T04:52:26.509Z,99777.09
2022-12-09T04:54:55.247Z,99777.80
2022-12-09T04:57:27.261Z,99785.32
2022-12-09T04:59:56.299Z,99780.17
2022-12-09T05:02:25.949Z,99784.36
2022-12-09T05:04:55.286Z,99792.02
2022-12-09T05:07:24.767Z,99784.33
2022-12-09T05:09:54.513Z,99776.66
2022-12-09T05:12:23.785Z,99771.48
2022-12-09T05:14:52.875Z,99773.13
2022-12-09T05:17:24.909Z,99778.16
2022-12-09T05:19:54.315Z,99784.01
2022-12-09T05:22:23.345Z,99784.75
2022-12-09T05:24:54.826Z,99782.09
2022-12-09T05:27:24.002Z,99780.31
2022-12-09T05:29:54.855Z,99785.42
2022-12-09T05:32:23.961Z,99785.42
2022-12-09T05:34:53.360Z,99780.24
2022-12-09T05:37:24.633Z,99781.98
2022-12-09T05:39:58.196Z,99778.58
2022-12-09T05:42:27.566Z,99776.02
2022-12-09T05:44:57.018Z,99781.13
2022-12-09T05:47:26.221Z,99781.09
2022-12-09T05:50:02.979Z,99782.61
2022-12-09T05:52:37.137Z,99786.69
2022-12-09T05:55:08.157Z,99786.69
2022-12-09T05:57:38.014Z,99791.86
2022-12-09T06:00:14.994Z,99785.98
2022-12-09T06:02:47.815Z,99785.16
2022-12-09T06:05:18.288Z,99785.27
2022-12-09T06:07:53.373Z,99789.56
2022-12-09T06:10:23.196Z,99786.02
2022-12-09T06:12:57.202Z,99790.16
2022-12-09T06:15:32.949Z,99782.42
2022-12-09T06:18:05.763Z,99790.02
2022-12-09T06:20:38.700Z,99785.68
2022-12-09T06:23:09.144Z,99790.79
2022-12-09T06:25:43.500Z,99787.35
2022-12-09T06:28:21.581Z,99791.60
2022-12-09T06:30:50.663Z,99794.97
2022-12-09T06:33:52.432Z,99790.75
2022-12-09T06:36:12.637Z,99789.86
2022-12-09T06:38:51.498Z,99794.12
2022-12-09T06:41:28.858Z,99797.56
2022-12-09T06:44:00.054Z,99801.92
2022-12-09T06:46:33.759Z,99805.28
2022-12-09T06:49:04.756Z,99794.27
2022-12-09T06:51:33.983Z,99795.12
2022-12-09T06:54:03.144Z,99801.00
2022-12-09T06:56:35.287Z,99800.08
2022-12-09T06:59:07.773Z,99801.84
2022-12-09T07:01:46.073Z,99794.16
2022-12-09T07:04:16.894Z,99791.49
2022-12-09T07:06:46.978Z,99797.33
2022-12-09T07:09:23.150Z,99797.41
2022-12-09T07:11:52.832Z,99799.15
2022-12-09T07:14:22.150Z,99794.86
2022-12-09T07:16:52.105Z,99799.96
2022-12-09T07:19:24.659Z,99789.02
2022-12-09T07:21:53.937Z,99788.27
2022-12-09T07:24:23.188Z,99781.50
2022-12-09T07:26:52.657Z,99784.09
2022-12-09T07:29:23.047Z,99790.16
2022-12-09T07:31:52.795Z,99782.61
2022-12-09T07:34:22.013Z,99779.35
2022-12-09T07:36:52.058Z,99783.69
2022-12-09T07:39:21.816Z,99790.67
2022-12-09T07:41:56.207Z,99798.48
2022-12-09T07:44:30.335Z,99793.63
2022-12-09T07:47:00.304Z,99791.31
2022-12-09T07:49:30.710Z,99795.89
2022-12-09T07:52:00.065Z,99797.16
2022-12-09T07:54:38.995Z,99790.88
2022-12-09T07:57:08.067Z,99788.76
2022-12-09T07:59:37.953Z,99780.69
2022-12-09T08:02:08.943Z,99790.41
2022-12-09T08:04:41.387Z,99785.61
2022-12-09T08:07:13.758Z,99781.65
2022-12-09T08:09:43.084Z,99799.02
2022-12-09T08:12:17.224Z,99796.72
2022-12-09T08:14:46.366Z,99793.48
2022-12-09T08:17:21.451Z,99786.84
2022-12-09T08:19:52.230Z,99793.80
2022-12-09T08:22:23.109Z,99787.09
2022-12-09T08:24:52.316Z,99794.94
2022-12-09T08:27:23.399Z,99796.79
2022-12-09T08:29:53.078Z,99796.91
2022-12-09T08:32:22.624Z,99806.41
2022-12-09T08:34:52.160Z,99809.10
2022-12-09T08:37:26.589Z,99805.80
2022-12-09T08:39:55.940Z,99805.91
2022-12-09T08:42:30.560Z,99813.70
2022-12-09T08:45:02.441Z,99810.34
2022-12-09T08:47:32.114Z,99806.14
2022-12-09T08:50:05.412Z,99804.58
2022-12-09T08:52:40.340Z,99810.71
2022-12-09T08:55:10.769Z,99812.55
2022-12-09T08:57:41.004Z,99810.11
2022-12-09T09:00:12.486Z,99802.58
2022-12-09T09:02:43.231Z,99795.84
2022-12-09T09:05:18.989Z,99797.69
2022-12-09T09:07:53.319Z,99801.23
2022-12-09T09:10:22.534Z,99796.23
2022-12-09T09:12:51.487Z,99800.63
2022-12-09T09:15:20.763Z,99798.13
2022-12-09T09:17:52.414Z,99800.79
2022-12-09T09:20:25.729Z,99805.16
2022-12-09T09:23:02.813Z,99802.61
2022-12-09T09:25:40.231Z,99806.98
2022-12-09T09:28:12.976Z,99799.36
2022-12-09T09:30:43.211Z,99796.84
2022-12-09T09:33:12.445Z,99805.48
2022-12-09T09:35:42.395Z,99796.09
2022-12-09T09:38:21.899Z,99794.48
2022-12-09T09:40:51.300Z,99793.67
2022-12-09T09:43:24.463Z,99794.56
2022-12-09T09:45:56.878Z,99797.16
2022-12-09T09:48:31.871Z,99797.22
2022-12-09T09:51:05.919Z,99791.26
2022-12-09T09:53:43.838Z,99796.42
2022-12-09T09:56:28.502Z,99795.64
2022-12-09T09:59:14.313Z,99788.86
2022-12-09T10:01:59.272Z,99793.17
2022-12-09T10:04:39.375Z,99791.53
2022-12-09T10:07:20.097Z,99789.03
2022-12-09T10:10:03.074Z,99795.14
2022-12-09T10:12:41.746Z,99790.92
2022-12-09T10:15:16.948Z,99794.45
2022-12-09T10:17:49.948Z,99794.53
2022-12-09T10:20:22.450Z,99785.13
2022-12-09T10:22:55.888Z,99791.20
2022-12-09T10:25:27.483Z,99786.16
2022-12-09T10:28:16.125Z,99790.53
2022-12-09T10:30:45.926Z,99787.20
2022-12-09T10:33:26.836Z,99783.82
2022-12-09T10:35:56.932Z,99781.38
2022-12-09T10:38:41.934Z,99784.86
2022-12-09T10:44:23.158Z,99791.04
2022-12-09T10:46:59.708Z,99786.02
2022-12-09T10:49:33.314Z,99782.67
2022-12-09T10:52:04.434Z,99784.48
2022-12-09T10:54:38.650Z,99789.73
2022-12-09T10:57:23.468Z,99787.23
2022-12-09T11:00:07.085Z,99782.98
2022-12-09T11:02:36.574Z,99783.04
2022-12-09T11:05:25.470Z,99783.94
2022-12-09T11:07:58.341Z,99774.55
2022-12-09T11:10:30.717Z,99777.98
2022-12-09T11:13:04.611Z,99771.20
2022-12-09T11:15:59.292Z,99775.51
2022-12-09T11:18:33.911Z,99772.98
2022-12-09T11:21:06.945Z,99773.84
2022-12-09T11:23:41.935Z,99770.43
2022-12-09T11:26:24.763Z,99765.34
2022-12-09T11:29:03.835Z,99767.06
2022-12-09T11:31:53.905Z,99769.70
2022-12-09T11:34:29.984Z,99773.31
2022-12-09T11:37:02.206Z,99766.59
2022-12-09T11:39:37.767Z,99764.12
2022-12-09T11:42:24.386Z,99757.24
2022-12-09T11:44:56.853Z,99762.38
2022-12-09T11:47:50.351Z,99767.48
2022-12-09T11:50:23.778Z,99758.83
2022-12-09T11:53:17.320Z,99759.66
2022-12-09T11:55:49.538Z,99754.41
2022-12-09T11:58:26.010Z,99756.09
2022-12-09T12:01:02.915Z,99754.37
2022-12-09T12:03:40.139Z,99754.37
2022-12-09T12:06:17.440Z,99749.22
2022-12-09T12:08:51.495Z,99746.64
2022-12-09T12:11:26.885Z,99750.95
2022-12-09T12:14:06.807Z,99744.17
2022-12-09T12:16:48.872Z,99744.18
2022-12-09T12:19:28.345Z,99739.92
2022-12-09T12:22:25.154Z,99743.39
2022-12-09T12:25:25.992Z,99747.69
2022-12-09T12:28:16.961Z,99747.68
2022-12-09T12:30:55.636Z,99747.59
2022-12-09T12:34:16.181Z,99742.34
2022-12-09T12:36:47.492Z,99741.41
2022-12-09T12:39:31.022Z,99750.84
2022-12-09T12:42:13.800Z,99748.22
2022-12-09T12:45:14.025Z,99749.91
2022-12-09T12:47:48.952Z,99749.91
2022-12-09T12:50:43.611Z,99751.53
2022-12-09T12:53:29.670Z,99747.17
2022-12-09T12:56:04.739Z,99745.38
2022-12-09T12:58:51.998Z,99743.64
2022-12-09T13:04:22.274Z,99746.11
2022-12-09T13:06:57.657Z,99751.19
2022-12-09T13:09:35.020Z,99754.53
2022-12-09T13:12:11.588Z,99758.78
2022-12-09T13:14:52.246Z,99761.34
2022-12-09T13:17:31.589Z,99767.33
2022-12-09T13:20:03.839Z,99756.15
2022-12-09T13:22:47.613Z,99757.80
2022-12-09T13:25:29.694Z,99754.28
2022-12-09T13:28:16.234Z,99754.98
2022-12-09T13:30:54.409Z,99753.11
2022-12-09T13:33:44.634Z,99753.81
2022-12-09T13:36:21.484Z,99768.30
2022-12-09T13:38:52.016Z,99767.33
2022-12-09T13:42:02.246Z,99768.95
2022-12-09T13:44:34.586Z,99771.38
2022-12-09T13:47:24.424Z,99773.84
2022-12-09T13:49:57.618Z,99775.44
2022-12-09T13:52:46.500Z,99771.83
2022-12-09T13:55:33.716Z,99772.41
2022-12-09T13:58:45.918Z,99776.36
2022-12-09T14:01:25.652Z,99776.96
2022-12-09T14:04:02.347Z,99770.89
2022-12-09T14:06:35.617Z,99779.36
2022-12-09T14:09:24.605Z,99773.27
2022-12-09T14:11:54.983Z,99768.73
2022-12-09T14:14:57.795Z,99767.62
2022-12-09T14:18:04.618Z,99769.02
2022-12-09T14:20:39.820Z,99773.09
2022-12-09T14:23:20.507Z,99767.88
2022-12-09T14:26:33.617Z,99776.18
2022-12-09T14:29:03.491Z,99781.03
2022-12-09T14:31:57.961Z,99785.14
2022-12-09T14:34:34.321Z,99783.27
2022-12-09T14:37:30.674Z,99781.53
2022-12-09T14:40:18.769Z,99786.63
2022-12-09T14:42:58.096Z,99786.58
2022-12-09T14:45:36.526Z,99777.10
2022-12-09T14:48:11.804Z,99777.73
2022-12-09T14:50:47.634Z,99766.36
2022-12-09T14:53:24.816Z,99761.03
2022-12-09T14:55:54.806Z,99763.45
2022-12-09T14:58:29.987Z,99764.22
2022-12-09T15:01:06.114Z,99755.63
2022-12-09T15:03:54.911Z,99758.98
2022-12-09T15:06:27.158Z,99753.83
2022-12-09T15:08:59.828Z,99757.95
2022-12-09T15:11:37.318Z,99757.71
2022-12-09T15:14:27.736Z,99755.03
2022-12-09T15:16:59.060Z,99750.70
2022-12-09T15:19:59.110Z,99751.56
2022-12-09T15:22:24.117Z,99753.17
2022-12-09T15:24:56.163Z,99752.27
2022-12-09T15:27:28.719Z,99755.70
2022-12-09T15:29:59.356Z,99753.17
2022-12-09T15:32:30.396Z,99754.09
2022-12-09T15:35:25.887Z,99747.20
2022-12-09T15:37:57.129Z,99750.53
2022-12-09T15:40:31.658Z,99748.85
2022-12-09T15:43:12.619Z,99741.21
2022-12-09T15:45:44.723Z,99748.85
2022-12-09T15:48:35.858Z,99742.82
2022-12-09T15:51:19.170Z,99734.27
2022-12-09T15:54:00.213Z,99736.83
2022-12-09T15:56:35.843Z,99729.13
2022-12-09T15:59:11.992Z,99727.36
2022-12-09T16:01:49.945Z,99721.30
2022-12-09T16:04:22.756Z,99718.77
2022-12-09T16:06:52.254Z,99717.95
2022-12-09T16:09:25.040Z,99727.33
2022-12-09T16:11:55.020Z,99722.15
2022-12-09T16:14:26.710Z,99710.19
2022-12-09T16:17:01.218Z,99714.48
2022-12-09T16:19:38.378Z,99707.69
2022-12-09T16:22:28.327Z,99700.87
2022-12-09T16:25:15.283Z,99710.19
2022-12-09T16:27:50.922Z,99713.63
2022-12-09T16:30:26.089Z,99712.74
2022-12-09T16:33:02.460Z,99707.56
2022-12-09T16:35:42.779Z,99713.50
2022-12-09T16:38:21.418Z,99708.33
2022-12-09T16:41:21.667Z,99704.86
2022-12-09T16:44:00.147Z,99698.89
2022-12-09T16:47:02.769Z,99700.59
2022-12-09T16:49:34.797Z,99700.62
2022-12-09T16:52:13.201Z,99703.21
2022-12-09T16:54:46.658Z,99691.22
2022-12-09T16:57:21.401Z,99702.30
2022-12-09T17:00:01.728Z,99695.52
2022-12-09T17:02:41.576Z,99686.13
2022-12-09T17:05:15.316Z,99696.36
2022-12-09T17:07:48.770Z,99705.83
2022-12-09T17:10:20.300Z,99706.78
2022-12-09T17:12:56.529Z,99705.13
2022-12-09T17:15:26.626Z,99709.45
2022-12-09T17:17:56.941Z,99711.13
2022-12-09T17:20:26.262Z,99710.30
2022-12-09T17:22:56.228Z,99707.81
2022-12-09T17:25:29.171Z,99709.45
2022-12-09T17:28:03.647Z,99706.86
2022-12-09T17:30:38.500Z,99706.86
2022-12-09T17:33:09.942Z,99707.75
2022-12-09T17:35:40.088Z,99709.48
2022-12-09T17:38:10.013Z,99704.36
2022-12-09T17:40:39.055Z,99718.86
2022-12-09T17:43:15.822Z,99721.45
2022-12-09T17:45:48.417Z,99715.54
2022-12-09T17:48:21.993Z,99705.40
2022-12-09T17:50:52.097Z,99707.16
2022-12-09T17:53:21.116Z,99701.28
2022-12-09T17:55:50.361Z,99709.84
2022-12-09T17:58:24.051Z,99709.02
2022-12-09T18:00:56.406Z,99708.30
2022-12-09T18:03:53.734Z,99705.86
2022-12-09T18:06:17.972Z,99709.33
2022-12-09T18:08:50.434Z,99712.77
2022-12-09T18:11:24.881Z,99706.86
2022-12-09T18:13:57.690Z,99701.77
2022-12-09T18:16:26.912Z,99699.20
2022-12-09T18:19:03.333Z,99698.39
2022-12-09T18:21:36.989Z,99690.00
2022-12-09T18:24:07.318Z,99689.23
2022-12-09T18:26:42.226Z,99683.34
2022-12-09T18:29:14.787Z,99686.06
2022-12-09T18:31:56.564Z,99685.34
2022-12-09T18:34:28.496Z,99688.86
2022-12-09T18:36:58.261Z,99688.06
2022-12-09T18:39:36.834Z,99685.58
2022-12-09T18:42:06.850Z,99683.95
2022-12-09T18:44:42.084Z,99693.42
2022-12-09T18:47:11.291Z,99688.35
2022-12-09T18:49:40.601Z,99690.16
2022-12-09T18:52:09.499Z,99688.53
2022-12-09T18:54:39.772Z,99689.47
2022-12-09T18:57:08.750Z,99686.98
2022-12-09T18:59:38.211Z,99685.33
2022-12-09T19:02:09.434Z,99687.91
2022-12-09T19:04:39.366Z,99676.89
2022-12-09T19:07:13.762Z,99684.59
2022-12-09T19:09:42.783Z,99686.33
2022-12-09T19:12:45.337Z,99679.50
2022-12-09T19:15:03.243Z,99681.28
2022-12-09T19:17:33.203Z,99688.98
2022-12-09T19:20:02.820Z,99689.84
2022-12-09T19:22:32.441Z,99682.23
2022-12-09T19:25:02.141Z,99683.08
2022-12-09T19:27:33.793Z,99678.86
2022-12-09T19:30:02.936Z,99682.31
2022-12-09T19:32:52.785Z,99688.34
2022-12-09T19:35:28.546Z,99684.91
2022-12-09T19:38:01.561Z,99680.67
2022-12-09T19:40:39.752Z,99679.84
2022-12-09T19:43:18.867Z,99678.95
2022-12-09T19:45:48.035Z,99681.58
2022-12-09T19:48:17.978Z,99683.31
2022-12-09T19:50:47.072Z,99676.47
2022-12-09T19:53:20.255Z,99670.52
2022-12-09T19:55:49.244Z,99668.80
2022-12-09T19:58:23.071Z,99663.68
2022-12-09T20:00:54.743Z,99671.42
2022-12-09T20:03:24.761Z,99670.59
2022-12-09T20:05:55.752Z,99668.05
2022-12-09T20:08:25.330Z,99669.78
2022-12-09T20:10:54.583Z,99669.78
2022-12-09T20:13:28.612Z,99670.68
2022-12-09T20:16:05.301Z,99669.80
2022-12-09T20:18:47.931Z,99665.56
2022-12-09T20:21:25.375Z,99680.94
2022-12-09T20:23:59.707Z,99672.36
2022-12-09T20:26:37.377Z,99670.68
2022-12-09T20:29:12.936Z,99670.68
2022-12-09T20:31:45.386Z,99668.14
2022-12-09T20:34:15.912Z,99657.89
2022-12-09T20:36:45.858Z,99663.92
2022-12-09T20:39:18.805Z,99669.06
2022-12-09T20:41:58.871Z,99667.38
2022-12-09T20:44:27.644Z,99666.57
2022-12-09T20:46:59.514Z,99660.61
2022-12-09T20:52:00.697Z,99656.31
2022-12-09T20:54:29.485Z,99652.92
2022-12-09T20:56:58.485Z,99646.95
2022-12-09T20:59:29.946Z,99645.23
2022-12-09T21:02:02.179Z,99647.80
2022-12-09T21:04:34.330Z,99639.26
2022-12-09T21:07:13.143Z,99637.55
2022-12-09T21:09:41.820Z,99636.72
2022-12-09T21:12:10.890Z,99636.72
2022-12-09T21:14:39.932Z,99637.56
2022-12-09T21:17:10.437Z,99631.59
2022-12-09T21:19:39.273Z,99636.73
2022-12-09T21:22:08.185Z,99638.47
2022-12-09T21:24:37.493Z,99640.20
2022-12-09T21:27:06.511Z,99639.37
2022-12-09T21:29:37.320Z,99629.96
2022-12-09T21:32:06.182Z,99635.98
2022-12-09T21:34:40.312Z,99640.28
2022-12-09T21:37:11.176Z,99630.91
2022-12-09T21:39:40.112Z,99641.17
2022-12-09T21:42:09.082Z,99632.66
2022-12-09T21:44:42.666Z,99642.92
2022-12-09T21:47:12.257Z,99637.80
2022-12-09T21:49:41.026Z,99636.08
2022-12-09T21:52:10.446Z,99637.81
2022-12-09T21:54:40.298Z,99627.55
2022-12-09T21:57:09.163Z,99620.74
2022-12-09T21:59:38.064Z,99618.18
2022-12-09T22:02:07.873Z,99610.48
2022-12-09T22:04:38.299Z,99614.78
2022-12-09T22:07:07.069Z,99615.63
2022-12-09T22:09:39.683Z,99613.07
2022-12-09T22:12:09.442Z,99615.66
2022-12-09T22:14:40.965Z,99609.69
2022-12-09T22:17:09.658Z,99608.86
2022-12-09T22:19:41.487Z,99606.34
2022-12-09T22:22:12.933Z,99599.50
2022-12-09T22:24:41.988Z,99602.06
2022-12-09T22:27:13.714Z,99601.23
2022-12-09T22:29:54.046Z,99596.95
2022-12-09T22:32:23.740Z,99598.69
2022-12-09T22:34:54.991Z,99599.58
2022-12-09T22:37:43.902Z,99594.50
2022-12-09T22:40:14.502Z,99589.37
2022-12-09T22:42:43.439Z,99586.83
2022-12-09T22:45:12.487Z,99584.25
2022-12-09T22:47:43.503Z,99581.70
2022-12-09T22:50:13.354Z,99576.59
2022-12-09T22:52:42.208Z,99588.57
2022-12-09T22:55:11.004Z,99583.42
2022-12-09T22:57:39.921Z,99577.47
2022-12-09T23:00:11.292Z,99572.34
2022-12-09T23:02:40.983Z,99569.77
2022-12-09T23:05:13.012Z,99561.25
2022-12-09T23:07:42.043Z,99569.79
2022-12-09T23:10:11.195Z,99565.54
2022-12-09T23:12:40.058Z,99563.81
2022-12-09T23:15:09.983Z,99562.97
2022-12-09T23:17:42.499Z,99565.54
2022-12-09T23:20:12.458Z,99562.09
2022-12-09T23:22:44.296Z,99564.66
2022-12-09T23:25:13.155Z,99560.41
2022-12-09T23:27:42.207Z,99559.53
2022-12-09T23:30:13.910Z,99562.09
2022-12-09T23:32:43.095Z,99563.77
2022-12-09T23:35:15.172Z,99563.77
2022-12-09T23:37:44.088Z,99558.63
2022-12-09T23:40:15.407Z,99558.63
2022-12-09T23:42:44.252Z,99550.94
2022-12-09T23:45:13.133Z,99551.82
2022-12-09T23:47:41.956Z,99555.22
2022-12-09T23:50:11.182Z,99556.06
2022-12-09T23:52:40.140Z,99554.34
2022-12-09T23:55:10.294Z,99549.21
2022-12-09T23:57:39.079Z,99558.63
